createdAt,value
2023-01-19T00:00:10.887Z,58.53
2023-01-19T00:05:17.981Z,62.03
2023-01-19T00:08:02.338Z,62.20
2023-01-19T00:10:36.166Z,55.03
2023-01-19T00:13:29.583Z,56.42
2023-01-19T00:16:18.531Z,56.95
2023-01-19T00:21:42.991Z,57.58
2023-01-19T00:24:12.491Z,52.53
2023-01-19T00:26:53.625Z,55.35
2023-01-19T00:29:35.328Z,56.95
2023-01-19T00:32:06.254Z,59.10
2023-01-19T00:34:43.605Z,54.63
2023-01-19T00:37:17.421Z,58.67
2023-01-19T00:42:34.242Z,62.35
2023-01-19T00:45:19.709Z,53.72
2023-01-19T00:47:48.402Z,60.05
2023-01-19T00:50:21.427Z,62.63
2023-01-19T00:52:52.894Z,51.40
2023-01-19T00:55:25.919Z,51.08
2023-01-19T01:00:36.125Z,58.70
2023-01-19T01:03:10.587Z,61.72
2023-01-19T01:05:50.370Z,59.00
2023-01-19T01:08:17.247Z,58.90
2023-01-19T01:10:46.569Z,58.40
2023-01-19T01:13:20.460Z,57.72
2023-01-19T01:15:52.465Z,60.45
2023-01-19T01:18:19.430Z,59.03
2023-01-19T01:21:00.588Z,53.58
2023-01-19T01:23:30.331Z,60.70
2023-01-19T01:26:00.145Z,63.60
2023-01-19T01:28:57.550Z,61.13
2023-01-19T01:31:50.910Z,64.47
2023-01-19T01:34:23.343Z,64.50
2023-01-19T01:36:55.070Z,59.67
2023-01-19T01:39:22.667Z,64.97
2023-01-19T01:42:15.875Z,61.25
2023-01-19T01:45:41.869Z,63.80
2023-01-19T01:48:32.599Z,64.50
2023-01-19T01:51:15.792Z,65.43
2023-01-19T01:53:45.490Z,67.88
2023-01-19T01:56:20.337Z,67.18
2023-01-19T01:59:04.829Z,69.18
2023-01-19T02:01:42.856Z,74.45
2023-01-19T02:04:22.704Z,73.10
2023-01-19T02:06:49.373Z,72.40
2023-01-19T02:09:32.827Z,72.70
2023-01-19T02:12:04.566Z,82.30
2023-01-19T02:14:31.258Z,79.53
2023-01-19T02:16:58.064Z,78.82
2023-01-19T02:19:35.381Z,74.13
2023-01-19T02:22:19.237Z,81.53
2023-01-19T02:24:46.253Z,77.53
2023-01-19T02:27:13.294Z,78.95
2023-01-19T02:29:49.230Z,86.10
2023-01-19T02:32:18.752Z,79.60
2023-01-19T02:34:48.600Z,63.85
2023-01-19T02:37:18.571Z,74.63
2023-01-19T02:40:04.628Z,78.53
2023-01-19T02:43:14.890Z,79.93
2023-01-19T02:46:09.594Z,78.35
2023-01-19T02:48:47.709Z,77.82
2023-01-19T02:51:31.312Z,74.20
2023-01-19T02:54:23.627Z,79.90
2023-01-19T02:57:27.430Z,74.80
2023-01-19T03:00:26.759Z,80.20
2023-01-19T03:03:15.941Z,79.72
2023-01-19T03:06:46.817Z,71.65
2023-01-19T03:09:28.920Z,73.80
2023-01-19T03:12:23.835Z,78.10
2023-01-19T03:14:53.887Z,76.85
2023-01-19T03:17:21.782Z,80.15
2023-01-19T03:22:42.336Z,69.78
2023-01-19T03:25:27.782Z,75.27
2023-01-19T03:27:57.492Z,75.20
2023-01-19T03:30:35.198Z,80.00
2023-01-19T03:33:15.653Z,73.18
2023-01-19T03:35:50.499Z,75.03
2023-01-19T03:38:21.937Z,74.15
2023-01-19T03:40:49.544Z,74.40
2023-01-19T03:43:30.855Z,78.25
2023-01-19T03:45:57.944Z,79.70
2023-01-19T03:51:14.166Z,76.55
2023-01-19T03:53:54.796Z,76.93
2023-01-19T03:59:27.021Z,76.65
2023-01-19T04:02:14.310Z,75.10
2023-01-19T04:04:56.485Z,74.97
2023-01-19T04:10:08.333Z,74.13
2023-01-19T04:12:57.661Z,76.13
2023-01-19T04:15:31.252Z,76.65
2023-01-19T04:17:59.201Z,76.85
2023-01-19T04:20:28.841Z,75.22
2023-01-19T04:25:44.489Z,75.72
2023-01-19T04:30:56.226Z,75.13
2023-01-19T04:33:27.256Z,75.00
2023-01-19T04:36:02.892Z,74.40
2023-01-19T04:38:29.749Z,74.68
2023-01-19T04:41:08.807Z,76.47
2023-01-19T04:43:49.660Z,70.35
2023-01-19T04:49:20.270Z,74.88
2023-01-19T04:52:14.881Z,64.15
2023-01-19T04:54:44.136Z,67.75
2023-01-19T04:57:18.522Z,68.45
2023-01-19T04:59:51.686Z,65.30
2023-01-19T05:02:18.484Z,70.78
2023-01-19T05:04:45.064Z,68.65
2023-01-19T05:07:34.668Z,72.32
2023-01-19T05:10:07.692Z,73.05
2023-01-19T05:13:13.339Z,71.70
2023-01-19T05:15:38.771Z,75.65
2023-01-19T05:18:05.404Z,81.40
2023-01-19T05:20:31.971Z,77.38
2023-01-19T05:22:59.025Z,83.82
2023-01-19T05:25:25.863Z,82.22
2023-01-19T05:27:52.399Z,83.22
2023-01-19T05:30:19.040Z,66.68
2023-01-19T05:32:48.365Z,69.13
2023-01-19T05:35:31.306Z,73.25
2023-01-19T05:38:02.034Z,73.18
2023-01-19T05:40:38.551Z,71.35
2023-01-19T05:43:05.516Z,78.28
2023-01-19T05:45:41.409Z,73.43
2023-01-19T05:48:11.078Z,72.90
2023-01-19T05:50:40.347Z,74.22
2023-01-19T05:53:06.960Z,74.28
2023-01-19T05:55:36.448Z,81.63
2023-01-19T05:58:03.966Z,76.68
2023-01-19T06:00:30.542Z,81.97
2023-01-19T06:03:03.663Z,75.32
2023-01-19T06:05:44.961Z,69.22
2023-01-19T06:08:11.495Z,72.63
2023-01-19T06:10:38.141Z,68.70
2023-01-19T06:13:04.752Z,75.13
2023-01-19T06:15:35.422Z,78.25
2023-01-19T06:18:02.014Z,75.40
2023-01-19T06:20:48.088Z,79.53
2023-01-19T06:23:18.025Z,80.82
2023-01-19T06:25:46.669Z,75.72
2023-01-19T06:28:26.403Z,72.95
2023-01-19T06:31:04.510Z,74.82
2023-01-19T06:33:36.813Z,81.18
2023-01-19T06:36:04.053Z,76.28
2023-01-19T06:38:30.657Z,71.57
2023-01-19T06:40:58.900Z,76.95
2023-01-19T06:43:26.908Z,68.38
2023-01-19T06:46:03.632Z,79.72
2023-01-19T06:48:37.129Z,66.03
2023-01-19T06:51:03.696Z,70.70
2023-01-19T06:53:37.967Z,82.00
2023-01-19T06:56:04.987Z,78.72
2023-01-19T07:01:21.032Z,75.45
2023-01-19T07:03:52.007Z,72.18
2023-01-19T07:06:20.875Z,74.63
2023-01-19T07:09:08.602Z,74.78
2023-01-19T07:11:35.041Z,78.30
2023-01-19T07:14:02.783Z,80.80
2023-01-19T07:16:35.051Z,77.10
2023-01-19T07:19:05.803Z,76.80
2023-01-19T07:21:38.591Z,76.88
2023-01-19T07:24:10.043Z,78.75
2023-01-19T07:27:00.701Z,78.05
2023-01-19T07:29:50.976Z,77.50
2023-01-19T07:32:32.931Z,82.68
2023-01-19T07:34:59.480Z,89.82
2023-01-19T07:37:34.605Z,83.05
2023-01-19T07:40:07.688Z,73.97
2023-01-19T07:42:54.782Z,83.80
2023-01-19T07:45:23.808Z,72.32
2023-01-19T07:47:50.425Z,73.60
2023-01-19T07:50:17.975Z,69.95
2023-01-19T07:52:44.504Z,70.03
2023-01-19T07:55:11.099Z,73.97
2023-01-19T07:57:52.589Z,72.72
2023-01-19T08:00:20.742Z,62.72
2023-01-19T08:02:57.199Z,69.13
2023-01-19T08:05:34.293Z,70.10
2023-01-19T08:08:02.282Z,74.35
2023-01-19T08:10:34.871Z,74.75
2023-01-19T08:13:11.503Z,75.85
2023-01-19T08:15:58.781Z,79.57
2023-01-19T08:18:36.458Z,85.38
2023-01-19T08:21:08.151Z,76.13
2023-01-19T08:23:34.936Z,79.65
2023-01-19T08:26:17.853Z,83.18
2023-01-19T08:28:52.055Z,77.50
2023-01-19T08:31:28.290Z,78.60
2023-01-19T08:33:57.814Z,77.80
2023-01-19T08:36:24.724Z,64.88
2023-01-19T08:38:59.544Z,73.97
2023-01-19T08:41:28.492Z,77.43
2023-01-19T08:43:57.958Z,67.95
2023-01-19T08:46:24.580Z,74.97
2023-01-19T08:48:51.290Z,63.53
2023-01-19T08:51:25.963Z,65.20
2023-01-19T08:54:01.056Z,69.28
2023-01-19T08:59:20.975Z,72.28
2023-01-19T09:02:03.153Z,82.22
2023-01-19T09:04:30.459Z,77.18
2023-01-19T09:06:57.277Z,68.38
2023-01-19T09:09:36.016Z,73.75
2023-01-19T09:12:02.734Z,68.97
2023-01-19T09:14:41.500Z,73.18
2023-01-19T09:17:13.931Z,74.43
2023-01-19T09:19:41.299Z,75.75
2023-01-19T09:22:12.906Z,81.68
2023-01-19T09:24:42.019Z,70.50
2023-01-19T09:27:11.409Z,72.60
2023-01-19T09:29:37.980Z,66.05
2023-01-19T09:32:04.843Z,69.28
2023-01-19T09:34:32.869Z,65.97
2023-01-19T09:37:13.554Z,69.45
2023-01-19T09:39:40.331Z,67.15
2023-01-19T09:42:42.743Z,67.07
2023-01-19T09:45:48.805Z,62.05
2023-01-19T09:48:44.440Z,60.50
2023-01-19T09:51:26.343Z,63.63
2023-01-19T09:54:25.670Z,58.50
2023-01-19T09:57:09.604Z,71.70
2023-01-19T09:59:39.663Z,57.90
2023-01-19T10:02:24.700Z,61.95
2023-01-19T10:05:09.093Z,62.30
2023-01-19T10:08:27.799Z,76.18
2023-01-19T10:10:58.430Z,66.70
2023-01-19T10:14:11.276Z,62.85
2023-01-19T10:16:51.363Z,59.28
2023-01-19T10:19:39.219Z,59.75
2023-01-19T10:22:29.948Z,55.95
2023-01-19T10:25:01.396Z,58.70
2023-01-19T10:27:40.205Z,64.07
2023-01-19T10:30:08.825Z,64.90
2023-01-19T10:32:41.802Z,57.47
2023-01-19T10:35:31.755Z,58.70
2023-01-19T10:38:05.848Z,56.08
2023-01-19T10:40:39.300Z,58.72
2023-01-19T10:43:33.797Z,59.10
2023-01-19T10:46:21.907Z,52.88
2023-01-19T10:48:53.666Z,67.07
2023-01-19T10:51:23.176Z,53.03
2023-01-19T10:54:02.060Z,55.55
2023-01-19T10:56:39.447Z,52.60
2023-01-19T10:59:38.709Z,49.53
2023-01-19T11:02:26.599Z,51.70
2023-01-19T11:05:05.319Z,57.72
2023-01-19T11:07:35.171Z,54.28
2023-01-19T11:10:32.380Z,53.15
2023-01-19T11:13:10.485Z,54.38
2023-01-19T11:15:56.385Z,54.58
2023-01-19T11:18:34.424Z,50.10
2023-01-19T11:21:08.061Z,46.00
2023-01-19T11:23:42.153Z,55.50
2023-01-19T11:26:14.852Z,50.60
2023-01-19T11:29:06.172Z,51.08
2023-01-19T11:31:35.612Z,52.28
2023-01-19T11:34:05.657Z,50.58
2023-01-19T11:36:38.398Z,49.95
2023-01-19T11:39:24.651Z,51.35
2023-01-19T11:42:01.617Z,49.38
2023-01-19T11:44:35.285Z,48.17
2023-01-19T11:47:29.902Z,48.10
2023-01-19T11:50:33.461Z,51.80
2023-01-19T11:53:34.151Z,45.80
2023-01-19T11:56:11.093Z,45.28
2023-01-19T11:58:43.168Z,56.40
2023-01-19T12:04:07.436Z,49.95
2023-01-19T12:06:40.307Z,63.33
2023-01-19T12:09:09.954Z,57.47
2023-01-19T12:12:07.715Z,52.55
2023-01-19T12:18:03.073Z,50.28
2023-01-19T12:21:03.928Z,55.25
2023-01-19T12:24:13.655Z,50.58
2023-01-19T12:27:09.019Z,45.00
2023-01-19T12:29:36.909Z,46.70
2023-01-19T12:32:38.095Z,43.05
2023-01-19T12:35:29.264Z,41.47
2023-01-19T12:37:59.552Z,44.80
2023-01-19T12:40:33.119Z,45.45
2023-01-19T12:43:05.682Z,43.92
2023-01-19T12:45:40.292Z,46.70
2023-01-19T12:48:32.336Z,49.10
2023-01-19T12:50:59.882Z,43.60
2023-01-19T12:53:33.550Z,47.33
2023-01-19T12:56:04.843Z,42.58
2023-01-19T12:58:34.109Z,49.58
2023-01-19T13:01:18.770Z,49.05
2023-01-19T13:04:12.904Z,56.53
2023-01-19T13:06:48.690Z,41.67
2023-01-19T13:09:45.093Z,42.15
2023-01-19T13:12:25.825Z,44.92
2023-01-19T13:15:35.100Z,42.83
2023-01-19T13:18:02.694Z,41.45
2023-01-19T13:20:44.214Z,44.25
2023-01-19T13:23:25.554Z,48.42
2023-01-19T13:26:04.389Z,45.50
2023-01-19T13:28:57.473Z,40.35
2023-01-19T13:31:28.096Z,45.05
2023-01-19T13:34:01.609Z,45.15
2023-01-19T13:36:35.578Z,49.60
2023-01-19T13:39:38.356Z,47.67
2023-01-19T13:42:13.441Z,43.80
2023-01-19T13:44:48.168Z,44.00
2023-01-19T13:47:22.619Z,40.70
2023-01-19T13:50:08.811Z,41.78
2023-01-19T13:52:43.656Z,45.72
2023-01-19T13:55:33.493Z,39.10
2023-01-19T13:58:00.110Z,52.22
2023-01-19T14:00:29.527Z,42.83
2023-01-19T14:03:00.381Z,42.75
2023-01-19T14:05:31.459Z,46.30
2023-01-19T14:08:09.888Z,43.95
2023-01-19T14:11:06.179Z,47.45
2023-01-19T14:13:46.072Z,44.25
2023-01-19T14:16:33.986Z,50.30
2023-01-19T14:19:10.142Z,39.75
2023-01-19T14:21:38.910Z,43.35
2023-01-19T14:24:30.429Z,39.15
2023-01-19T14:27:27.987Z,43.77
2023-01-19T14:29:54.591Z,46.75
2023-01-19T14:32:26.177Z,48.35
2023-01-19T14:35:33.123Z,38.85
2023-01-19T14:38:02.391Z,36.92
2023-01-19T14:43:19.326Z,37.50
2023-01-19T14:46:01.376Z,45.38
2023-01-19T14:48:28.020Z,50.20
2023-01-19T14:51:13.271Z,45.72
2023-01-19T14:53:48.492Z,41.78
2023-01-19T14:56:28.026Z,41.25
2023-01-19T14:58:59.495Z,46.08
2023-01-19T15:01:30.125Z,51.25
2023-01-19T15:03:57.196Z,47.75
2023-01-19T15:06:26.469Z,51.25
2023-01-19T15:09:00.718Z,53.35
2023-01-19T15:11:32.810Z,52.67
2023-01-19T15:16:34.301Z,49.03
2023-01-19T15:19:17.802Z,47.75
2023-01-19T15:21:59.844Z,53.33
2023-01-19T15:24:29.459Z,53.35
2023-01-19T15:26:58.753Z,45.92
2023-01-19T15:29:26.260Z,45.85
2023-01-19T15:32:03.021Z,49.10
2023-01-19T15:34:49.801Z,44.30
2023-01-19T15:37:17.572Z,47.92
2023-01-19T15:39:50.356Z,52.58
2023-01-19T15:42:19.633Z,47.00
2023-01-19T15:44:48.744Z,52.70
2023-01-19T15:47:15.386Z,48.13
2023-01-19T15:49:41.968Z,43.70
2023-01-19T15:52:08.587Z,46.35
2023-01-19T15:54:44.114Z,52.22
2023-01-19T15:57:17.192Z,38.78
2023-01-19T15:59:44.579Z,37.85
2023-01-19T16:02:14.301Z,36.80
2023-01-19T16:04:48.045Z,45.38
2023-01-19T16:07:14.795Z,34.50
2023-01-19T16:09:42.244Z,33.80
2023-01-19T16:12:08.820Z,33.90
2023-01-19T16:14:42.808Z,36.95
2023-01-19T16:17:09.365Z,37.38
2023-01-19T16:19:35.948Z,32.30
2023-01-19T16:22:02.571Z,30.77
2023-01-19T16:24:34.767Z,31.90
2023-01-19T16:27:01.359Z,29.38
2023-01-19T16:29:34.292Z,33.83
2023-01-19T16:32:00.927Z,31.25
2023-01-19T16:34:30.743Z,32.40
2023-01-19T16:40:01.255Z,28.77
2023-01-19T16:42:28.199Z,32.40
2023-01-19T16:45:15.740Z,29.55
2023-01-19T16:47:42.310Z,30.58
2023-01-19T16:50:11.583Z,27.13
2023-01-19T16:52:41.114Z,27.35
2023-01-19T16:55:17.921Z,25.75
2023-01-19T16:57:50.266Z,30.52
2023-01-19T17:00:19.065Z,31.48
2023-01-19T17:02:48.935Z,28.95
2023-01-19T17:05:15.562Z,21.85
2023-01-19T17:07:42.213Z,26.17
2023-01-19T17:10:22.083Z,21.95
2023-01-19T17:12:49.041Z,23.10
2023-01-19T17:15:36.410Z,25.30
2023-01-19T17:18:11.046Z,18.95
2023-01-19T17:20:46.345Z,19.17
2023-01-19T17:23:20.307Z,17.77
2023-01-19T17:26:02.230Z,12.85
2023-01-19T17:28:32.124Z,15.70
2023-01-19T17:31:07.414Z,14.70
2023-01-19T17:33:35.092Z,14.50
2023-01-19T17:36:10.379Z,12.80
2023-01-19T17:38:42.616Z,16.13
2023-01-19T17:41:23.514Z,15.32
2023-01-19T17:44:00.102Z,11.88
2023-01-19T17:46:28.849Z,13.32
2023-01-19T17:49:02.903Z,15.68
2023-01-19T17:51:32.585Z,16.15
2023-01-19T17:54:04.257Z,12.30
2023-01-19T17:56:32.851Z,12.70
2023-01-19T17:59:00.001Z,15.63
2023-01-19T18:01:31.476Z,13.13
2023-01-19T18:03:58.745Z,14.25
2023-01-19T18:06:28.558Z,14.85
2023-01-19T18:08:58.334Z,11.35
2023-01-19T18:11:34.647Z,12.32
2023-01-19T18:14:03.966Z,11.82
2023-01-19T18:16:53.565Z,12.68
2023-01-19T18:19:30.379Z,13.55
2023-01-19T18:22:02.705Z,12.30
2023-01-19T18:24:29.275Z,11.32
2023-01-19T18:26:56.029Z,10.52
2023-01-19T18:29:22.927Z,12.10
2023-01-19T18:31:49.541Z,10.75
2023-01-19T18:34:16.101Z,10.80
2023-01-19T18:36:42.664Z,11.25
2023-01-19T18:39:09.283Z,10.27
2023-01-19T18:41:42.093Z,10.50
2023-01-19T18:44:12.753Z,10.93
2023-01-19T18:46:42.151Z,11.20
2023-01-19T18:49:09.039Z,10.15
2023-01-19T18:51:36.001Z,10.93
2023-01-19T18:54:02.634Z,10.48
2023-01-19T18:56:29.759Z,10.60
2023-01-19T18:58:57.574Z,12.05
2023-01-19T19:01:36.828Z,10.68
2023-01-19T19:04:03.556Z,11.30
2023-01-19T19:06:33.159Z,13.25
2023-01-19T19:08:59.773Z,12.18
2023-01-19T19:11:31.502Z,10.32
2023-01-19T19:14:02.461Z,10.68
2023-01-19T19:16:39.722Z,11.65
2023-01-19T19:19:24.228Z,10.63
2023-01-19T19:21:52.037Z,10.93
2023-01-19T19:24:20.139Z,10.73
2023-01-19T19:26:48.524Z,11.45
2023-01-19T19:29:17.632Z,12.57
2023-01-19T19:31:44.273Z,11.23
2023-01-19T19:34:15.125Z,10.75
2023-01-19T19:36:41.738Z,10.73
2023-01-19T19:39:14.324Z,11.80
2023-01-19T19:41:45.054Z,13.27
2023-01-19T19:44:11.757Z,12.30
2023-01-19T19:46:44.775Z,12.50
2023-01-19T19:49:11.441Z,12.20
2023-01-19T19:51:40.938Z,12.73
2023-01-19T19:54:07.556Z,12.32
2023-01-19T19:56:34.308Z,12.02
2023-01-19T19:59:03.547Z,15.02
2023-01-19T20:01:34.279Z,12.30
2023-01-19T20:04:12.238Z,14.85
2023-01-19T20:06:47.173Z,15.70
2023-01-19T20:09:15.506Z,13.95
2023-01-19T20:11:46.110Z,15.70
2023-01-19T20:14:16.671Z,13.77
2023-01-19T20:16:46.428Z,13.38
2023-01-19T20:19:15.498Z,15.15
2023-01-19T20:21:42.572Z,13.27
2023-01-19T20:24:16.178Z,14.35
2023-01-19T20:26:46.177Z,15.52
2023-01-19T20:29:19.273Z,14.30
2023-01-19T20:32:04.004Z,13.82
2023-01-19T20:34:37.237Z,12.75
2023-01-19T20:37:16.189Z,15.68
2023-01-19T20:39:52.684Z,18.50
2023-01-19T20:42:24.325Z,17.20
2023-01-19T20:44:52.781Z,18.77
2023-01-19T20:47:19.363Z,15.77
2023-01-19T20:50:09.640Z,15.32
2023-01-19T20:52:40.776Z,21.67
2023-01-19T20:55:18.595Z,17.90
2023-01-19T20:58:19.031Z,16.60
2023-01-19T21:00:52.721Z,19.48
2023-01-19T21:03:21.368Z,18.95
2023-01-19T21:05:59.526Z,19.15
2023-01-19T21:08:36.583Z,17.52
2023-01-19T21:11:03.900Z,20.02
2023-01-19T21:13:39.672Z,20.23
2023-01-19T21:16:12.201Z,23.48
2023-01-19T21:18:41.819Z,18.25
2023-01-19T21:21:28.402Z,22.27
2023-01-19T21:24:07.199Z,20.00
2023-01-19T21:26:45.791Z,14.77
2023-01-19T21:29:35.480Z,18.50
2023-01-19T21:32:15.171Z,26.02
2023-01-19T21:34:49.200Z,23.73
2023-01-19T21:37:18.489Z,26.30
2023-01-19T21:39:45.310Z,19.15
2023-01-19T21:42:15.488Z,28.80
2023-01-19T21:44:44.382Z,21.75
2023-01-19T21:47:12.229Z,21.95
2023-01-19T21:49:41.687Z,23.60
2023-01-19T21:52:09.696Z,21.98
2023-01-19T21:54:36.325Z,24.02
2023-01-19T21:57:02.949Z,21.95
2023-01-19T21:59:30.266Z,22.35
2023-01-19T22:02:05.672Z,22.55
2023-01-19T22:04:44.378Z,20.33
2023-01-19T22:07:19.916Z,20.77
2023-01-19T22:09:56.697Z,20.23
2023-01-19T22:12:32.955Z,24.70
2023-01-19T22:14:59.558Z,23.30
2023-01-19T22:17:28.875Z,22.50
2023-01-19T22:19:55.472Z,19.63
2023-01-19T22:22:30.797Z,25.05
2023-01-19T22:24:57.387Z,26.20
2023-01-19T22:27:32.834Z,23.92
2023-01-19T22:29:59.867Z,23.60
2023-01-19T22:32:26.478Z,22.23
2023-01-19T22:35:02.634Z,26.15
2023-01-19T22:37:30.687Z,21.17
2023-01-19T22:39:57.253Z,23.42
2023-01-19T22:42:34.392Z,24.75
2023-01-19T22:45:00.942Z,21.98
2023-01-19T22:47:29.736Z,23.80
2023-01-19T22:49:56.304Z,22.05
2023-01-19T22:52:22.927Z,22.95
2023-01-19T22:54:49.458Z,25.13
2023-01-19T22:57:15.988Z,24.92
2023-01-19T22:59:42.559Z,23.23
2023-01-19T23:02:09.210Z,21.98
2023-01-19T23:07:16.496Z,25.83
2023-01-19T23:09:48.273Z,21.42
2023-01-19T23:12:14.879Z,21.95
2023-01-19T23:14:50.332Z,24.20
2023-01-19T23:17:17.232Z,21.23
2023-01-19T23:19:52.669Z,23.10
2023-01-19T23:22:19.257Z,23.80
2023-01-19T23:24:45.792Z,24.20
2023-01-19T23:27:21.037Z,23.08
2023-01-19T23:29:50.815Z,25.77
2023-01-19T23:32:17.420Z,21.85
2023-01-19T23:34:44.063Z,23.98
2023-01-19T23:37:16.825Z,21.13
2023-01-19T23:39:43.386Z,24.90
2023-01-19T23:42:26.895Z,23.88
2023-01-19T23:44:58.473Z,21.83
2023-01-19T23:47:25.078Z,23.60
2023-01-19T23:49:55.406Z,23.63
2023-01-19T23:52:22.003Z,25.10
2023-01-19T23:55:02.013Z,23.58
2023-01-19T23:57:33.585Z,26.55
